createdAt,value
2019-05-07T00:00:32.890Z,91.20
2019-05-07T00:03:03.332Z,91.20
2019-05-07T00:05:33.183Z,91.30
2019-05-07T00:08:02.971Z,91.40
2019-05-07T00:10:33.171Z,91.30
2019-05-07T00:13:02.275Z,91.20
2019-05-07T00:15:32.822Z,91.40
2019-05-07T00:18:02.970Z,91.60
2019-05-07T00:20:32.539Z,91.60
2019-05-07T00:23:02.751Z,91.50
2019-05-07T00:25:32.781Z,91.40
2019-05-07T00:28:02.583Z,91.70
2019-05-07T00:30:32.972Z,91.60
2019-05-07T00:33:02.582Z,91.70
2019-05-07T00:35:35.200Z,91.90
2019-05-07T00:38:08.027Z,91.90
2019-05-07T00:40:43.614Z,91.90
2019-05-07T00:43:13.482Z,91.90
2019-05-07T00:45:46.102Z,92.00
2019-05-07T00:48:14.317Z,91.90
2019-05-07T00:50:44.178Z,92.10
2019-05-07T00:53:13.106Z,92.10
2019-05-07T00:55:42.325Z,92.10
2019-05-07T00:58:13.082Z,92.30
2019-05-07T01:00:42.041Z,92.20
2019-05-07T01:03:12.614Z,92.40
2019-05-07T01:05:40.376Z,92.60
2019-05-07T01:08:08.600Z,92.80
2019-05-07T01:10:36.826Z,92.50
2019-05-07T01:13:05.048Z,92.60
2019-05-07T01:15:34.618Z,92.70
2019-05-07T01:18:03.177Z,92.70
2019-05-07T01:20:32.958Z,92.80
2019-05-07T01:23:02.648Z,93.10
2019-05-07T01:25:32.848Z,93.00
2019-05-07T01:28:02.618Z,93.20
2019-05-07T01:30:32.451Z,93.60
2019-05-07T01:33:02.896Z,94.10
2019-05-07T01:35:32.805Z,94.00
2019-05-07T01:38:02.999Z,94.00
2019-05-07T01:40:32.362Z,94.20
2019-05-07T01:43:02.549Z,94.20
2019-05-07T01:45:43.203Z,93.90
2019-05-07T01:48:04.188Z,93.80
2019-05-07T01:50:32.257Z,93.60
2019-05-07T01:53:00.487Z,93.60
2019-05-07T01:55:28.704Z,93.50
2019-05-07T01:57:56.905Z,93.50
2019-05-07T02:00:25.139Z,93.60
2019-05-07T02:02:54.978Z,93.80
2019-05-07T02:05:32.654Z,93.90
2019-05-07T02:08:02.951Z,93.90
2019-05-07T02:10:32.263Z,93.90
2019-05-07T02:13:02.286Z,94.20
2019-05-07T02:15:32.288Z,94.40
2019-05-07T02:18:01.983Z,94.40
2019-05-07T02:20:32.141Z,94.40
2019-05-07T02:23:02.576Z,94.20
2019-05-07T02:25:32.540Z,94.30
2019-05-07T02:28:02.157Z,94.30
2019-05-07T02:30:30.630Z,94.40
2019-05-07T02:32:58.872Z,95.00
2019-05-07T02:35:27.188Z,94.90
2019-05-07T02:37:57.214Z,94.90
2019-05-07T02:40:27.094Z,95.10
2019-05-07T02:42:55.329Z,95.20
2019-05-07T02:45:25.186Z,95.40
2019-05-07T02:47:53.420Z,95.30
2019-05-07T02:50:23.263Z,95.20
2019-05-07T02:52:53.892Z,95.10
2019-05-07T02:55:33.601Z,95.30
2019-05-07T02:58:03.555Z,95.50
2019-05-07T03:00:33.380Z,95.30
2019-05-07T03:03:04.057Z,95.50
2019-05-07T03:05:34.881Z,95.80
2019-05-07T03:08:03.351Z,96.00
2019-05-07T03:10:34.085Z,95.90
2019-05-07T03:13:02.989Z,96.40
2019-05-07T03:15:33.186Z,96.40
2019-05-07T03:18:03.384Z,96.80
2019-05-07T03:20:36.881Z,96.80
2019-05-07T03:23:05.494Z,96.90
2019-05-07T03:25:35.341Z,97.20
2019-05-07T03:28:04.388Z,97.20
2019-05-07T03:30:37.381Z,97.10
2019-05-07T03:33:07.873Z,97.20
2019-05-07T03:35:38.307Z,97.30
2019-05-07T03:38:06.643Z,97.50
2019-05-07T03:40:36.141Z,97.40
2019-05-07T03:43:06.059Z,97.80
2019-05-07T03:45:38.960Z,98.00
2019-05-07T03:48:14.531Z,98.00
2019-05-07T03:50:43.333Z,97.80
2019-05-07T03:53:14.175Z,97.80
2019-05-07T03:55:44.630Z,97.70
2019-05-07T03:58:14.624Z,98.00
2019-05-07T04:00:44.157Z,97.90
2019-05-07T04:03:13.958Z,98.00
2019-05-07T04:05:43.294Z,97.80
2019-05-07T04:08:13.159Z,97.70
2019-05-07T04:10:44.263Z,97.90
2019-05-07T04:13:13.318Z,97.90
2019-05-07T04:15:43.955Z,98.00
2019-05-07T04:18:13.080Z,98.10
2019-05-07T04:20:43.593Z,98.00
2019-05-07T04:23:13.850Z,97.90
2019-05-07T04:25:48.742Z,98.20
2019-05-07T04:28:23.533Z,98.00
2019-05-07T04:30:53.307Z,98.00
2019-05-07T04:33:25.965Z,98.10
2019-05-07T04:36:02.827Z,97.90
2019-05-07T04:38:33.442Z,97.90
2019-05-07T04:41:03.819Z,97.80
2019-05-07T04:43:33.595Z,97.80
2019-05-07T04:46:03.274Z,98.00
2019-05-07T04:48:33.760Z,98.00
2019-05-07T04:51:03.500Z,98.00
2019-05-07T04:53:32.856Z,98.30
2019-05-07T04:56:03.334Z,98.00
2019-05-07T04:58:33.845Z,97.60
2019-05-07T05:01:03.239Z,97.40
2019-05-07T05:03:33.979Z,97.10
2019-05-07T05:06:02.696Z,96.80
2019-05-07T05:08:32.559Z,96.50
2019-05-07T05:11:03.383Z,96.30
2019-05-07T05:13:32.964Z,96.10
2019-05-07T05:16:02.604Z,96.00
2019-05-07T05:18:32.811Z,95.80
2019-05-07T05:21:17.403Z,95.60
2019-05-07T05:23:47.280Z,94.90
2019-05-07T05:26:15.483Z,94.30
2019-05-07T05:28:43.700Z,93.40
2019-05-07T05:31:12.652Z,92.80
2019-05-07T05:33:41.960Z,91.80
2019-05-07T05:36:12.467Z,91.50
2019-05-07T05:38:42.360Z,91.00
2019-05-07T05:41:12.295Z,91.10
2019-05-07T05:43:42.589Z,91.10
2019-05-07T05:46:12.528Z,90.80
2019-05-07T05:48:42.533Z,90.70
2019-05-07T05:51:24.537Z,90.50
2019-05-07T05:54:01.914Z,90.30
2019-05-07T05:56:34.308Z,88.40
2019-05-07T05:59:06.928Z,87.20
2019-05-07T06:01:52.302Z,86.70
2019-05-07T06:04:25.100Z,87.00
2019-05-07T06:07:14.044Z,85.60
2019-05-07T06:09:58.852Z,85.40
2019-05-07T06:12:37.508Z,84.90
2019-05-07T06:15:13.949Z,84.40
2019-05-07T06:17:59.967Z,83.50
2019-05-07T06:20:35.752Z,83.30
2019-05-07T06:23:17.573Z,81.90
2019-05-07T06:25:47.432Z,80.70
2019-05-07T06:28:15.661Z,82.20
2019-05-07T06:30:43.882Z,83.00
2019-05-07T06:33:12.545Z,82.30
2019-05-07T06:35:42.897Z,80.10
2019-05-07T06:38:12.444Z,77.80
2019-05-07T06:40:52.007Z,77.20
2019-05-07T06:43:25.049Z,76.80
2019-05-07T06:45:57.883Z,75.40
2019-05-07T06:48:38.065Z,74.40
2019-05-07T06:50:59.593Z,72.90
2019-05-07T06:53:28.460Z,73.40
2019-05-07T06:55:57.900Z,73.20
2019-05-07T06:58:41.775Z,71.90
2019-05-07T07:01:14.272Z,73.30
2019-05-07T07:04:02.774Z,72.20
2019-05-07T07:06:33.100Z,68.00
2019-05-07T07:09:02.973Z,67.10
2019-05-07T07:11:38.911Z,66.20
2019-05-07T07:14:07.176Z,65.70
2019-05-07T07:16:35.429Z,64.70
2019-05-07T07:19:03.653Z,63.10
2019-05-07T07:21:32.683Z,62.10
2019-05-07T07:24:03.058Z,65.60
2019-05-07T07:26:32.808Z,64.40
2019-05-07T07:29:02.015Z,62.30
2019-05-07T07:31:32.094Z,62.20
2019-05-07T07:34:02.326Z,60.90
2019-05-07T07:36:32.364Z,60.10
2019-05-07T07:39:02.053Z,58.80
2019-05-07T07:41:42.140Z,60.00
2019-05-07T07:44:10.700Z,60.40
2019-05-07T07:46:38.929Z,59.20
2019-05-07T07:49:11.385Z,58.50
2019-05-07T07:51:41.729Z,58.00
2019-05-07T07:54:07.221Z,56.80
2019-05-07T07:56:50.006Z,55.90
2019-05-07T07:59:24.049Z,55.50
2019-05-07T08:01:53.913Z,55.10
2019-05-07T08:04:22.854Z,55.20
2019-05-07T08:07:03.243Z,55.40
2019-05-07T08:09:34.607Z,56.00
2019-05-07T08:12:03.183Z,54.60
2019-05-07T08:14:32.524Z,53.20
2019-05-07T08:17:02.570Z,53.40
2019-05-07T08:19:32.759Z,52.90
2019-05-07T08:22:02.812Z,52.70
2019-05-07T08:24:32.076Z,54.00
2019-05-07T08:27:02.337Z,54.30
2019-05-07T08:29:32.559Z,54.30
2019-05-07T08:32:04.788Z,53.40
2019-05-07T08:34:34.657Z,51.90
2019-05-07T08:39:32.604Z,48.30
2019-05-07T08:42:02.106Z,48.90
2019-05-07T08:44:35.068Z,48.40
2019-05-07T08:47:22.825Z,49.20
2019-05-07T08:49:52.375Z,52.30
2019-05-07T08:52:22.704Z,52.90
2019-05-07T08:54:51.842Z,54.20
2019-05-07T08:57:22.581Z,56.50
2019-05-07T08:59:58.502Z,57.40
2019-05-07T09:02:22.251Z,58.60
2019-05-07T09:04:52.085Z,57.70
2019-05-07T09:07:21.892Z,57.80
2019-05-07T09:09:52.079Z,57.70
2019-05-07T09:12:19.948Z,59.10
2019-05-07T09:14:48.170Z,58.60
2019-05-07T09:17:16.407Z,58.20
2019-05-07T09:19:51.521Z,58.80
2019-05-07T09:22:14.579Z,58.50
2019-05-07T09:24:42.819Z,57.60
2019-05-07T09:27:27.946Z,57.30
2019-05-07T09:30:02.664Z,58.00
2019-05-07T09:32:42.534Z,57.50
2019-05-07T09:35:18.226Z,57.40
2019-05-07T09:37:46.427Z,56.90
2019-05-07T09:40:14.716Z,53.90
2019-05-07T09:42:42.957Z,51.00
2019-05-07T09:45:12.079Z,47.40
2019-05-07T09:47:41.779Z,43.20
2019-05-07T09:50:11.910Z,42.60
2019-05-07T09:55:51.531Z,41.60
2019-05-07T09:58:33.157Z,38.00
2019-05-07T10:00:49.469Z,35.00
2019-05-07T10:03:17.699Z,34.80
2019-05-07T10:05:45.932Z,38.40
2019-05-07T10:08:14.164Z,41.50
2019-05-07T10:10:43.685Z,42.80
2019-05-07T10:13:19.564Z,46.30
2019-05-07T10:15:47.785Z,48.80
2019-05-07T10:18:17.315Z,49.20
2019-05-07T10:20:45.543Z,50.20
2019-05-07T10:23:22.421Z,49.80
2019-05-07T10:25:50.733Z,48.40
2019-05-07T10:30:46.974Z,50.20
2019-05-07T10:33:15.188Z,52.00
2019-05-07T10:35:43.537Z,51.30
2019-05-07T10:38:12.492Z,51.70
2019-05-07T10:40:40.916Z,52.30
2019-05-07T10:43:09.204Z,53.20
2019-05-07T10:45:45.025Z,54.30
2019-05-07T10:48:18.035Z,52.80
2019-05-07T10:50:56.822Z,51.50
2019-05-07T10:53:25.048Z,51.90
2019-05-07T10:55:53.269Z,48.40
2019-05-07T10:58:21.512Z,47.60
2019-05-07T11:00:52.194Z,48.10
2019-05-07T11:03:21.768Z,49.40
2019-05-07T11:05:49.900Z,49.10
2019-05-07T11:08:18.124Z,48.40
2019-05-07T11:10:46.348Z,49.00
2019-05-07T11:13:14.574Z,50.00
2019-05-07T11:15:44.433Z,51.40
2019-05-07T11:18:17.337Z,51.80
2019-05-07T11:20:50.298Z,50.20
2019-05-07T11:23:15.509Z,48.80
2019-05-07T11:25:43.729Z,50.30
2019-05-07T11:28:12.465Z,52.00
2019-05-07T11:30:42.520Z,51.40
2019-05-07T11:33:12.843Z,49.80
2019-05-07T11:35:42.295Z,48.50
2019-05-07T11:38:18.753Z,47.80
2019-05-07T11:40:42.726Z,50.40
2019-05-07T11:43:29.137Z,49.60
2019-05-07T11:46:17.448Z,50.90
2019-05-07T11:48:56.096Z,53.00
2019-05-07T11:51:37.656Z,52.60
2019-05-07T11:54:16.567Z,51.70
2019-05-07T11:56:44.780Z,51.20
2019-05-07T11:59:13.607Z,50.70
2019-05-07T12:01:47.834Z,50.50
2019-05-07T12:04:16.420Z,50.70
2019-05-07T12:06:44.631Z,50.50
2019-05-07T12:09:13.013Z,51.00
2019-05-07T12:11:42.564Z,50.70
2019-05-07T12:14:12.375Z,50.80
2019-05-07T12:16:42.545Z,50.40
2019-05-07T12:19:13.058Z,51.50
2019-05-07T12:21:42.184Z,50.40
2019-05-07T12:24:12.899Z,51.00
2019-05-07T12:26:41.827Z,52.00
2019-05-07T12:29:11.841Z,53.70
2019-05-07T12:31:55.642Z,53.90
2019-05-07T12:34:31.874Z,55.50
2019-05-07T12:37:01.687Z,57.40
2019-05-07T12:39:31.828Z,57.50
2019-05-07T12:42:00.275Z,58.40
2019-05-07T12:44:28.483Z,59.90
2019-05-07T12:46:56.718Z,60.10
2019-05-07T12:49:24.938Z,59.30
2019-05-07T12:51:54.825Z,59.50
2019-05-07T12:54:26.659Z,59.40
2019-05-07T12:56:54.877Z,59.60
2019-05-07T12:59:23.101Z,59.80
2019-05-07T13:01:55.917Z,59.40
2019-05-07T13:04:28.536Z,59.40
2019-05-07T13:06:58.404Z,57.60
2019-05-07T13:09:26.628Z,58.00
2019-05-07T13:11:54.868Z,56.00
2019-05-07T13:14:23.086Z,56.20
2019-05-07T13:16:52.224Z,56.10
2019-05-07T13:19:22.622Z,54.90
2019-05-07T13:21:50.796Z,54.60
2019-05-07T13:24:19.020Z,54.60
2019-05-07T13:26:47.283Z,53.80
2019-05-07T13:29:15.590Z,51.10
2019-05-07T13:31:43.805Z,53.20
2019-05-07T13:34:12.295Z,51.60
2019-05-07T13:36:42.280Z,52.10
2019-05-07T13:39:12.144Z,51.80
2019-05-07T13:41:42.012Z,51.30
2019-05-07T13:44:27.343Z,51.80
2019-05-07T13:47:13.445Z,50.60
2019-05-07T13:49:42.773Z,50.60
2019-05-07T13:52:11.781Z,48.70
2019-05-07T13:54:41.927Z,49.00
2019-05-07T13:57:12.013Z,48.90
2019-05-07T13:59:42.326Z,47.30
2019-05-07T14:02:15.173Z,46.80
2019-05-07T14:04:42.069Z,47.00
2019-05-07T14:07:12.510Z,48.30
2019-05-07T14:09:42.020Z,47.10
2019-05-07T14:12:12.156Z,47.50
2019-05-07T14:14:42.433Z,47.10
2019-05-07T14:17:10.097Z,47.80
2019-05-07T14:19:38.309Z,49.00
2019-05-07T14:22:15.212Z,49.80
2019-05-07T14:24:36.481Z,51.10
2019-05-07T14:27:04.704Z,49.00
2019-05-07T14:29:32.932Z,49.50
2019-05-07T14:32:02.760Z,49.30
2019-05-07T14:34:34.914Z,49.10
2019-05-07T14:37:06.926Z,49.70
2019-05-07T14:39:35.140Z,48.30
2019-05-07T14:42:07.794Z,47.70
2019-05-07T14:44:48.805Z,46.20
2019-05-07T14:47:19.033Z,43.40
2019-05-07T14:49:47.900Z,41.40
2019-05-07T14:52:28.953Z,37.40
2019-05-07T14:54:46.060Z,38.70
2019-05-07T14:57:14.268Z,39.60
2019-05-07T14:59:42.814Z,38.50
2019-05-07T15:02:12.090Z,36.50
2019-05-07T15:04:41.961Z,35.60
2019-05-07T15:07:12.023Z,36.00
2019-05-07T15:09:42.359Z,38.50
2019-05-07T15:12:12.363Z,38.20
2019-05-07T15:14:42.016Z,39.90
2019-05-07T15:17:14.848Z,49.90
2019-05-07T15:19:43.059Z,56.70
2019-05-07T15:22:23.688Z,45.20
2019-05-07T15:24:52.520Z,45.80
2019-05-07T15:27:22.781Z,45.80
2019-05-07T15:29:52.653Z,46.40
2019-05-07T15:32:21.823Z,46.60
2019-05-07T15:34:52.481Z,46.00
2019-05-07T15:37:20.165Z,47.10
2019-05-07T15:39:48.389Z,48.80
2019-05-07T15:42:16.592Z,48.90
2019-05-07T15:44:44.853Z,49.70
2019-05-07T15:47:14.702Z,49.30
2019-05-07T15:49:42.942Z,48.80
2019-05-07T15:52:15.513Z,49.10
2019-05-07T15:54:43.738Z,48.60
2019-05-07T16:00:06.892Z,47.20
2019-05-07T16:02:36.758Z,48.20
2019-05-07T16:05:05.940Z,46.10
2019-05-07T16:07:34.171Z,48.10
2019-05-07T16:10:02.389Z,48.40
2019-05-07T16:12:31.956Z,47.60
2019-05-07T16:15:00.424Z,47.90
2019-05-07T16:17:32.440Z,47.90
2019-05-07T16:20:00.223Z,48.70
2019-05-07T16:22:30.080Z,48.70
2019-05-07T16:24:58.326Z,48.90
2019-05-07T16:27:26.548Z,49.50
2019-05-07T16:29:54.781Z,48.40
2019-05-07T16:32:24.224Z,48.00
2019-05-07T16:34:52.787Z,47.40
2019-05-07T16:37:21.651Z,46.70
2019-05-07T16:39:50.074Z,46.70
2019-05-07T16:42:18.304Z,46.50
2019-05-07T16:44:46.532Z,47.30
2019-05-07T16:47:14.746Z,47.50
2019-05-07T16:49:42.976Z,47.80
2019-05-07T16:52:12.014Z,47.60
2019-05-07T16:54:42.658Z,48.60
2019-05-07T16:57:14.912Z,49.10
2019-05-07T16:59:43.146Z,48.50
2019-05-07T17:02:13.028Z,48.60
2019-05-07T17:04:42.866Z,49.70
2019-05-07T17:07:13.333Z,48.60
2019-05-07T17:09:42.440Z,49.10
2019-05-07T17:12:12.467Z,49.90
2019-05-07T17:14:42.483Z,50.20
2019-05-07T17:17:12.083Z,48.50
2019-05-07T17:19:42.428Z,48.90
2019-05-07T17:22:12.103Z,49.80
2019-05-07T17:24:42.278Z,50.30
2019-05-07T17:27:11.929Z,50.20
2019-05-07T17:29:40.210Z,50.80
2019-05-07T17:32:12.158Z,51.20
2019-05-07T17:34:41.987Z,51.30
2019-05-07T17:37:12.501Z,51.20
2019-05-07T17:39:39.951Z,51.40
2019-05-07T17:42:08.160Z,51.70
2019-05-07T17:44:36.389Z,51.80
2019-05-07T17:47:04.971Z,50.80
2019-05-07T17:49:36.380Z,51.50
2019-05-07T17:52:03.208Z,51.50
2019-05-07T17:54:31.833Z,52.40
2019-05-07T17:57:02.021Z,52.70
2019-05-07T17:59:31.711Z,52.30
2019-05-07T18:02:04.693Z,51.70
2019-05-07T18:04:47.509Z,51.70
2019-05-07T18:07:04.304Z,52.40
2019-05-07T18:09:32.520Z,52.80
2019-05-07T18:12:00.752Z,54.00
2019-05-07T18:14:28.992Z,55.30
2019-05-07T18:16:58.844Z,56.60
2019-05-07T18:19:28.707Z,56.90
2019-05-07T18:21:56.918Z,57.50
2019-05-07T18:24:25.216Z,58.80
2019-05-07T18:26:53.419Z,59.10
2019-05-07T18:29:22.489Z,59.20
2019-05-07T18:31:55.240Z,59.60
2019-05-07T18:34:23.462Z,60.50
2019-05-07T18:36:53.040Z,60.90
2019-05-07T18:39:21.477Z,62.10
2019-05-07T18:41:49.698Z,63.40
2019-05-07T18:44:22.132Z,64.80
2019-05-07T18:46:49.473Z,65.60
2019-05-07T18:49:17.689Z,66.60
2019-05-07T18:51:45.920Z,66.70
2019-05-07T18:54:26.999Z,66.30
2019-05-07T18:56:44.100Z,65.60
2019-05-07T18:59:12.972Z,65.20
2019-05-07T19:01:42.961Z,65.30
2019-05-07T19:04:12.954Z,65.90
2019-05-07T19:06:42.401Z,66.50
2019-05-07T19:09:10.953Z,67.10
2019-05-07T19:11:39.175Z,67.10
2019-05-07T19:14:07.381Z,67.30
2019-05-07T19:16:35.628Z,67.60
2019-05-07T19:19:03.842Z,68.30
2019-05-07T19:21:32.137Z,68.90
2019-05-07T19:24:02.304Z,69.50
2019-05-07T19:26:30.344Z,69.80
2019-05-07T19:28:58.648Z,69.60
2019-05-07T19:31:26.854Z,69.80
2019-05-07T19:33:55.057Z,70.20
2019-05-07T19:36:23.273Z,70.60
2019-05-07T19:38:52.579Z,70.70
2019-05-07T19:41:20.964Z,71.00
2019-05-07T19:43:49.184Z,72.20
2019-05-07T19:46:17.392Z,74.80
2019-05-07T19:48:45.785Z,75.90
2019-05-07T19:51:13.995Z,77.00
2019-05-07T19:53:42.209Z,77.30
2019-05-07T19:56:14.723Z,77.60
2019-05-07T19:58:42.940Z,76.50
2019-05-07T20:01:12.551Z,76.80
2019-05-07T20:03:40.763Z,78.50
2019-05-07T20:06:08.987Z,79.90
2019-05-07T20:08:37.201Z,81.20
2019-05-07T20:11:11.925Z,81.80
2019-05-07T20:13:41.659Z,82.60
2019-05-07T20:16:14.436Z,83.10
2019-05-07T20:18:42.927Z,83.70
2019-05-07T20:21:12.370Z,83.80
2019-05-07T20:23:42.600Z,84.30
2019-05-07T20:26:12.579Z,85.50
2019-05-07T20:28:41.755Z,86.20
2019-05-07T20:31:12.172Z,87.40
2019-05-07T20:33:42.200Z,87.90
2019-05-07T20:36:10.115Z,89.00
2019-05-07T20:38:38.354Z,89.50
2019-05-07T20:41:06.609Z,90.70
2019-05-07T20:43:34.820Z,90.90
2019-05-07T20:46:03.040Z,91.00
2019-05-07T20:48:32.527Z,91.60
2019-05-07T20:51:00.972Z,91.50
2019-05-07T20:53:47.321Z,90.60
2019-05-07T20:56:17.167Z,91.50
2019-05-07T20:58:45.388Z,90.70
2019-05-07T21:01:13.620Z,91.50
2019-05-07T21:03:42.832Z,91.80
2019-05-07T21:06:11.303Z,92.20
2019-05-07T21:08:39.603Z,92.00
2019-05-07T21:11:07.888Z,90.70
2019-05-07T21:13:36.135Z,90.50
2019-05-07T21:16:04.341Z,91.00
2019-05-07T21:18:32.769Z,91.30
2019-05-07T21:21:02.141Z,91.50
2019-05-07T21:23:32.593Z,92.00
2019-05-07T21:26:02.148Z,91.80
2019-05-07T21:28:32.398Z,91.80
2019-05-07T21:31:02.779Z,92.10
2019-05-07T21:33:32.220Z,92.00
2019-05-07T21:36:02.714Z,91.70
2019-05-07T21:38:32.726Z,91.00
2019-05-07T21:41:00.556Z,90.70
2019-05-07T21:43:28.770Z,90.60
2019-05-07T21:45:57.024Z,90.80
2019-05-07T21:48:25.223Z,91.40
2019-05-07T21:50:54.212Z,91.60
2019-05-07T21:53:26.772Z,91.80
2019-05-07T21:56:13.804Z,92.00
2019-05-07T21:58:46.384Z,92.50
2019-05-07T22:01:18.972Z,92.70
2019-05-07T22:03:48.857Z,92.80
2019-05-07T22:06:17.057Z,92.60
2019-05-07T22:08:45.281Z,92.60
2019-05-07T22:11:13.507Z,92.00
2019-05-07T22:13:43.530Z,91.80
2019-05-07T22:16:13.075Z,92.10
2019-05-07T22:18:42.649Z,92.50
2019-05-07T22:21:12.398Z,92.60
2019-05-07T22:23:42.791Z,92.80
2019-05-07T22:26:20.206Z,92.80
2019-05-07T22:28:41.931Z,92.90
2019-05-07T22:31:21.184Z,93.30
2019-05-07T22:33:59.289Z,93.20
2019-05-07T22:36:26.698Z,93.50
2019-05-07T22:38:54.936Z,93.30
2019-05-07T22:41:23.163Z,93.20
2019-05-07T22:43:51.387Z,93.40
2019-05-07T22:46:22.073Z,93.40
2019-05-07T22:48:49.581Z,93.70
2019-05-07T22:51:17.864Z,93.60
2019-05-07T22:53:46.109Z,93.70
2019-05-07T22:56:14.322Z,93.80
2019-05-07T22:58:44.205Z,93.80
2019-05-07T23:01:14.041Z,93.80
2019-05-07T23:03:42.978Z,93.80
2019-05-07T23:06:12.265Z,93.80
2019-05-07T23:08:42.348Z,93.80
2019-05-07T23:11:12.186Z,93.90
2019-05-07T23:13:42.735Z,94.10
2019-05-07T23:16:12.574Z,94.30
2019-05-07T23:18:42.764Z,94.50
2019-05-07T23:21:10.620Z,94.50
2019-05-07T23:23:38.830Z,94.70
2019-05-07T23:26:07.039Z,94.60
2019-05-07T23:28:35.275Z,95.00
2019-05-07T23:31:03.495Z,95.50
2019-05-07T23:33:32.263Z,95.30
2019-05-07T23:36:02.199Z,95.60
2019-05-07T23:38:31.907Z,96.00
2019-05-07T23:41:14.065Z,96.20
2019-05-07T23:43:42.453Z,96.10
2019-05-07T23:46:12.752Z,96.10
2019-05-07T23:48:42.646Z,95.80
2019-05-07T23:51:12.520Z,95.70
2019-05-07T23:53:44.134Z,95.60
2019-05-07T23:56:10.465Z,95.90
2019-05-07T23:58:38.686Z,95.50
